sensor_id;sensor_type;location;lat;lon;timestamp;temperature;humidity
59505;DHT22;45321;53.200;5.814;2024-02-28T00:00:38;5.00;83.70
59505;DHT22;45321;53.200;5.814;2024-02-28T00:03:03;5.00;83.60
59505;DHT22;45321;53.200;5.814;2024-02-28T00:05:29;5.00;83.50
59505;DHT22;45321;53.200;5.814;2024-02-28T00:07:55;4.90;83.60
59505;DHT22;45321;53.200;5.814;2024-02-28T00:10:21;4.90;83.90
59505;DHT22;45321;53.200;5.814;2024-02-28T00:12:47;4.90;84.00
59505;DHT22;45321;53.200;5.814;2024-02-28T00:15:13;4.80;84.00
59505;DHT22;45321;53.200;5.814;2024-02-28T00:17:39;4.80;84.20
59505;DHT22;45321;53.200;5.814;2024-02-28T00:20:07;4.70;84.60
59505;DHT22;45321;53.200;5.814;2024-02-28T00:22:33;4.60;84.60
59505;DHT22;45321;53.200;5.814;2024-02-28T00:24:58;4.60;84.50
59505;DHT22;45321;53.200;5.814;2024-02-28T00:27:26;4.50;84.90
59505;DHT22;45321;53.200;5.814;2024-02-28T00:29:52;4.50;85.10
59505;DHT22;45321;53.200;5.814;2024-02-28T00:32:18;4.50;85.10
59505;DHT22;45321;53.200;5.814;2024-02-28T00:34:43;4.50;84.90
59505;DHT22;45321;53.200;5.814;2024-02-28T00:37:09;4.50;85.00
59505;DHT22;45321;53.200;5.814;2024-02-28T00:39:35;4.40;85.20
59505;DHT22;45321;53.200;5.814;2024-02-28T00:42:01;4.40;85.20
59505;DHT22;45321;53.200;5.814;2024-02-28T00:44:26;4.40;85.40
59505;DHT22;45321;53.200;5.814;2024-02-28T00:46:52;4.40;85.60
59505;DHT22;45321;53.200;5.814;2024-02-28T00:49:18;4.30;85.60
59505;DHT22;45321;53.200;5.814;2024-02-28T00:51:45;4.30;86.00
59505;DHT22;45321;53.200;5.814;2024-02-28T00:54:11;4.30;85.90
59505;DHT22;45321;53.200;5.814;2024-02-28T00:56:37;4.30;85.70
59505;DHT22;45321;53.200;5.814;2024-02-28T00:59:02;4.30;85.70
59505;DHT22;45321;53.200;5.814;2024-02-28T01:01:28;4.30;86.00
59505;DHT22;45321;53.200;5.814;2024-02-28T01:03:54;4.30;86.20
59505;DHT22;45321;53.200;5.814;2024-02-28T01:06:19;4.20;86.30
59505;DHT22;45321;53.200;5.814;2024-02-28T01:08:45;4.30;86.40
59505;DHT22;45321;53.200;5.814;2024-02-28T01:11:11;4.30;86.50
59505;DHT22;45321;53.200;5.814;2024-02-28T01:13:37;4.30;86.40
59505;DHT22;45321;53.200;5.814;2024-02-28T01:16:02;4.30;86.50
59505;DHT22;45321;53.200;5.814;2024-02-28T01:18:28;4.30;86.40
59505;DHT22;45321;53.200;5.814;2024-02-28T01:20:56;4.30;86.70
59505;DHT22;45321;53.200;5.814;2024-02-28T01:23:22;4.30;86.90
59505;DHT22;45321;53.200;5.814;2024-02-28T01:25:48;4.30;86.90
59505;DHT22;45321;53.200;5.814;2024-02-28T01:28:14;4.30;86.90
59505;DHT22;45321;53.200;5.814;2024-02-28T01:30:39;4.40;86.80
59505;DHT22;45321;53.200;5.814;2024-02-28T01:33:05;4.40;86.90
59505;DHT22;45321;53.200;5.814;2024-02-28T01:35:31;4.40;87.00
59505;DHT22;45321;53.200;5.814;2024-02-28T01:37:57;4.40;87.10
59505;DHT22;45321;53.200;5.814;2024-02-28T01:40:22;4.40;86.80
59505;DHT22;45321;53.200;5.814;2024-02-28T01:42:48;4.40;87.00
59505;DHT22;45321;53.200;5.814;2024-02-28T01:45:14;4.40;87.20
59505;DHT22;45321;53.200;5.814;2024-02-28T01:47:43;4.40;87.50
59505;DHT22;45321;53.200;5.814;2024-02-28T01:50:09;4.40;87.00
59505;DHT22;45321;53.200;5.814;2024-02-28T01:52:40;4.40;87.70
59505;DHT22;45321;53.200;5.814;2024-02-28T01:55:06;4.40;87.50
59505;DHT22;45321;53.200;5.814;2024-02-28T01:57:33;4.50;87.60
59505;DHT22;45321;53.200;5.814;2024-02-28T02:00:00;4.50;87.50
59505;DHT22;45321;53.200;5.814;2024-02-28T02:02:26;4.60;87.60
59505;DHT22;45321;53.200;5.814;2024-02-28T02:04:52;4.60;87.40
59505;DHT22;45321;53.200;5.814;2024-02-28T02:07:19;4.60;87.40
59505;DHT22;45321;53.200;5.814;2024-02-28T02:09:45;4.80;87.40
59505;DHT22;45321;53.200;5.814;2024-02-28T02:12:11;4.80;87.20
59505;DHT22;45321;53.200;5.814;2024-02-28T02:14:37;4.80;87.30
59505;DHT22;45321;53.200;5.814;2024-02-28T02:17:03;4.80;87.40
59505;DHT22;45321;53.200;5.814;2024-02-28T02:19:29;4.80;87.20
59505;DHT22;45321;53.200;5.814;2024-02-28T02:21:58;4.90;87.30
59505;DHT22;45321;53.200;5.814;2024-02-28T02:24:24;4.80;87.40
59505;DHT22;45321;53.200;5.814;2024-02-28T02:26:54;4.90;87.30
59505;DHT22;45321;53.200;5.814;2024-02-28T02:29:19;4.90;87.10
59505;DHT22;45321;53.200;5.814;2024-02-28T02:31:45;4.90;87.30
59505;DHT22;45321;53.200;5.814;2024-02-28T02:34:11;4.90;87.40
59505;DHT22;45321;53.200;5.814;2024-02-28T02:36:37;4.90;87.40
59505;DHT22;45321;53.200;5.814;2024-02-28T02:39:02;5.00;87.40
59505;DHT22;45321;53.200;5.814;2024-02-28T02:41:28;5.00;87.40
59505;DHT22;45321;53.200;5.814;2024-02-28T02:43:54;5.00;87.20
59505;DHT22;45321;53.200;5.814;2024-02-28T02:46:20;4.90;87.30
59505;DHT22;45321;53.200;5.814;2024-02-28T02:48:46;5.00;87.30
59505;DHT22;45321;53.200;5.814;2024-02-28T02:51:11;4.90;87.30
59505;DHT22;45321;53.200;5.814;2024-02-28T02:53:37;5.00;87.40
59505;DHT22;45321;53.200;5.814;2024-02-28T02:56:06;5.00;87.30
59505;DHT22;45321;53.200;5.814;2024-02-28T02:58:32;5.00;87.40
59505;DHT22;45321;53.200;5.814;2024-02-28T03:00:58;5.00;87.30
59505;DHT22;45321;53.200;5.814;2024-02-28T03:03:23;5.00;87.60
59505;DHT22;45321;53.200;5.814;2024-02-28T03:05:49;5.00;87.30
59505;DHT22;45321;53.200;5.814;2024-02-28T03:08:15;5.00;87.50
59505;DHT22;45321;53.200;5.814;2024-02-28T03:10:41;5.00;87.70
59505;DHT22;45321;53.200;5.814;2024-02-28T03:13:06;5.00;87.50
59505;DHT22;45321;53.200;5.814;2024-02-28T03:15:33;5.00;87.50
59505;DHT22;45321;53.200;5.814;2024-02-28T03:17:59;5.10;87.90
59505;DHT22;45321;53.200;5.814;2024-02-28T03:20:25;5.10;87.50
59505;DHT22;45321;53.200;5.814;2024-02-28T03:22:51;5.10;87.50
59505;DHT22;45321;53.200;5.814;2024-02-28T03:25:17;5.20;87.50
59505;DHT22;45321;53.200;5.814;2024-02-28T03:27:42;5.20;87.40
59505;DHT22;45321;53.200;5.814;2024-02-28T03:30:08;5.20;87.50
59505;DHT22;45321;53.200;5.814;2024-02-28T03:32:34;5.20;87.60
59505;DHT22;45321;53.200;5.814;2024-02-28T03:35:00;5.20;87.70
59505;DHT22;45321;53.200;5.814;2024-02-28T03:37:26;5.30;87.70
59505;DHT22;45321;53.200;5.814;2024-02-28T03:39:51;5.30;87.70
59505;DHT22;45321;53.200;5.814;2024-02-28T03:42:17;5.30;87.60
59505;DHT22;45321;53.200;5.814;2024-02-28T03:44:43;5.30;87.70
59505;DHT22;45321;53.200;5.814;2024-02-28T03:47:09;5.40;87.80
59505;DHT22;45321;53.200;5.814;2024-02-28T03:49:35;5.40;87.90
59505;DHT22;45321;53.200;5.814;2024-02-28T03:52:04;5.40;87.90
59505;DHT22;45321;53.200;5.814;2024-02-28T03:54:31;5.40;87.90
59505;DHT22;45321;53.200;5.814;2024-02-28T03:56:57;5.40;88.10
59505;DHT22;45321;53.200;5.814;2024-02-28T03:59:24;5.40;88.10
59505;DHT22;45321;53.200;5.814;2024-02-28T04:01:51;5.40;88.30
59505;DHT22;45321;53.200;5.814;2024-02-28T04:04:17;5.50;88.30
59505;DHT22;45321;53.200;5.814;2024-02-28T04:06:42;5.50;88.40
59505;DHT22;45321;53.200;5.814;2024-02-28T04:09:08;5.40;88.30
59505;DHT22;45321;53.200;5.814;2024-02-28T04:11:34;5.50;88.40
59505;DHT22;45321;53.200;5.814;2024-02-28T04:13:59;5.50;88.40
59505;DHT22;45321;53.200;5.814;2024-02-28T04:16:25;5.60;88.50
59505;DHT22;45321;53.200;5.814;2024-02-28T04:18:51;5.60;88.50
59505;DHT22;45321;53.200;5.814;2024-02-28T04:21:17;5.60;88.50
59505;DHT22;45321;53.200;5.814;2024-02-28T04:23:42;5.70;88.40
59505;DHT22;45321;53.200;5.814;2024-02-28T04:26:09;5.70;88.40
59505;DHT22;45321;53.200;5.814;2024-02-28T04:28:35;5.70;88.60
59505;DHT22;45321;53.200;5.814;2024-02-28T04:31:00;5.70;88.60
59505;DHT22;45321;53.200;5.814;2024-02-28T04:33:26;5.70;88.60
59505;DHT22;45321;53.200;5.814;2024-02-28T04:35:55;5.80;88.60
59505;DHT22;45321;53.200;5.814;2024-02-28T04:38:20;5.80;88.50
59505;DHT22;45321;53.200;5.814;2024-02-28T04:40:46;5.80;88.50
59505;DHT22;45321;53.200;5.814;2024-02-28T04:43:12;5.80;88.40
59505;DHT22;45321;53.200;5.814;2024-02-28T04:45:38;5.80;88.30
59505;DHT22;45321;53.200;5.814;2024-02-28T04:48:03;5.70;88.40
59505;DHT22;45321;53.200;5.814;2024-02-28T04:50:29;5.70;88.50
59505;DHT22;45321;53.200;5.814;2024-02-28T04:52:55;5.70;88.70
59505;DHT22;45321;53.200;5.814;2024-02-28T04:55:21;5.70;88.80
59505;DHT22;45321;53.200;5.814;2024-02-28T04:57:46;5.70;88.80
59505;DHT22;45321;53.200;5.814;2024-02-28T05:00:12;5.70;89.00
59505;DHT22;45321;53.200;5.814;2024-02-28T05:02:38;5.80;88.90
59505;DHT22;45321;53.200;5.814;2024-02-28T05:05:04;5.80;89.10
59505;DHT22;45321;53.200;5.814;2024-02-28T05:07:30;5.80;88.90
59505;DHT22;45321;53.200;5.814;2024-02-28T05:09:56;5.80;89.00
59505;DHT22;45321;53.200;5.814;2024-02-28T05:12:21;5.80;89.10
59505;DHT22;45321;53.200;5.814;2024-02-28T05:14:47;5.80;89.20
59505;DHT22;45321;53.200;5.814;2024-02-28T05:17:13;5.80;89.10
59505;DHT22;45321;53.200;5.814;2024-02-28T05:19:39;5.80;89.40
59505;DHT22;45321;53.200;5.814;2024-02-28T05:22:05;5.80;89.40
59505;DHT22;45321;53.200;5.814;2024-02-28T05:24:30;5.90;89.60
59505;DHT22;45321;53.200;5.814;2024-02-28T05:26:56;5.90;89.60
59505;DHT22;45321;53.200;5.814;2024-02-28T05:29:22;5.90;89.80
59505;DHT22;45321;53.200;5.814;2024-02-28T05:31:48;5.90;89.80
59505;DHT22;45321;53.200;5.814;2024-02-28T05:34:13;6.00;89.80
59505;DHT22;45321;53.200;5.814;2024-02-28T05:36:40;6.00;90.00
59505;DHT22;45321;53.200;5.814;2024-02-28T05:39:06;5.90;89.90
59505;DHT22;45321;53.200;5.814;2024-02-28T05:41:33;6.00;89.90
59505;DHT22;45321;53.200;5.814;2024-02-28T05:43:59;6.00;90.00
59505;DHT22;45321;53.200;5.814;2024-02-28T05:46:25;6.00;90.10
59505;DHT22;45321;53.200;5.814;2024-02-28T05:48:51;6.10;90.10
59505;DHT22;45321;53.200;5.814;2024-02-28T05:51:16;6.10;90.20
59505;DHT22;45321;53.200;5.814;2024-02-28T05:53:42;6.10;90.00
59505;DHT22;45321;53.200;5.814;2024-02-28T05:56:09;6.10;90.00
59505;DHT22;45321;53.200;5.814;2024-02-28T05:58:45;6.10;90.00
59505;DHT22;45321;53.200;5.814;2024-02-28T06:01:12;6.10;90.20
59505;DHT22;45321;53.200;5.814;2024-02-28T06:03:40;6.20;90.10
59505;DHT22;45321;53.200;5.814;2024-02-28T06:06:05;6.20;90.20
59505;DHT22;45321;53.200;5.814;2024-02-28T06:08:33;6.20;90.20
59505;DHT22;45321;53.200;5.814;2024-02-28T06:10:59;6.20;90.20
59505;DHT22;45321;53.200;5.814;2024-02-28T06:13:25;6.20;90.20
59505;DHT22;45321;53.200;5.814;2024-02-28T06:15:50;6.30;90.10
59505;DHT22;45321;53.200;5.814;2024-02-28T06:18:16;6.30;90.30
59505;DHT22;45321;53.200;5.814;2024-02-28T06:20:42;6.30;90.20
59505;DHT22;45321;53.200;5.814;2024-02-28T06:23:07;6.30;90.40
59505;DHT22;45321;53.200;5.814;2024-02-28T06:25:33;6.30;90.20
59505;DHT22;45321;53.200;5.814;2024-02-28T06:27:59;6.30;90.30
59505;DHT22;45321;53.200;5.814;2024-02-28T06:30:25;6.30;89.90
59505;DHT22;45321;53.200;5.814;2024-02-28T06:32:51;6.30;89.90
59505;DHT22;45321;53.200;5.814;2024-02-28T06:35:17;6.20;89.90
59505;DHT22;45321;53.200;5.814;2024-02-28T06:37:43;6.20;89.90
59505;DHT22;45321;53.200;5.814;2024-02-28T06:40:15;6.20;90.00
59505;DHT22;45321;53.200;5.814;2024-02-28T06:42:41;6.20;90.00
59505;DHT22;45321;53.200;5.814;2024-02-28T06:45:07;6.20;90.10
59505;DHT22;45321;53.200;5.814;2024-02-28T06:47:34;6.20;90.10
59505;DHT22;45321;53.200;5.814;2024-02-28T06:50:04;6.20;90.00
59505;DHT22;45321;53.200;5.814;2024-02-28T06:52:31;6.20;90.10
59505;DHT22;45321;53.200;5.814;2024-02-28T06:54:56;6.30;90.30
59505;DHT22;45321;53.200;5.814;2024-02-28T06:57:22;6.30;90.20
59505;DHT22;45321;53.200;5.814;2024-02-28T06:59:48;6.30;90.10
59505;DHT22;45321;53.200;5.814;2024-02-28T07:02:14;6.30;90.10
59505;DHT22;45321;53.200;5.814;2024-02-28T07:04:41;6.30;90.10
59505;DHT22;45321;53.200;5.814;2024-02-28T07:07:07;6.30;90.20
59505;DHT22;45321;53.200;5.814;2024-02-28T07:09:33;6.30;90.20
59505;DHT22;45321;53.200;5.814;2024-02-28T07:11:59;6.30;90.10
59505;DHT22;45321;53.200;5.814;2024-02-28T07:14:26;6.30;89.90
59505;DHT22;45321;53.200;5.814;2024-02-28T07:16:52;6.30;89.70
59505;DHT22;45321;53.200;5.814;2024-02-28T07:19:18;6.30;89.80
59505;DHT22;45321;53.200;5.814;2024-02-28T07:21:44;6.30;90.00
59505;DHT22;45321;53.200;5.814;2024-02-28T07:24:10;6.40;90.00
59505;DHT22;45321;53.200;5.814;2024-02-28T07:26:36;6.40;89.70
59505;DHT22;45321;53.200;5.814;2024-02-28T07:29:02;6.40;89.80
59505;DHT22;45321;53.200;5.814;2024-02-28T07:31:28;6.40;89.80
59505;DHT22;45321;53.200;5.814;2024-02-28T07:33:54;6.30;89.80
59505;DHT22;45321;53.200;5.814;2024-02-28T07:36:20;6.40;89.70
59505;DHT22;45321;53.200;5.814;2024-02-28T07:38:46;6.30;89.80
59505;DHT22;45321;53.200;5.814;2024-02-28T07:41:14;6.40;89.70
59505;DHT22;45321;53.200;5.814;2024-02-28T07:43:43;6.40;89.90
59505;DHT22;45321;53.200;5.814;2024-02-28T07:46:09;6.50;89.90
59505;DHT22;45321;53.200;5.814;2024-02-28T07:48:37;6.50;89.90
59505;DHT22;45321;53.200;5.814;2024-02-28T07:51:07;6.50;89.80
59505;DHT22;45321;53.200;5.814;2024-02-28T07:53:33;6.50;89.80
59505;DHT22;45321;53.200;5.814;2024-02-28T07:55:58;6.60;89.80
59505;DHT22;45321;53.200;5.814;2024-02-28T07:58:24;6.60;89.70
59505;DHT22;45321;53.200;5.814;2024-02-28T08:00:51;6.70;89.70
59505;DHT22;45321;53.200;5.814;2024-02-28T08:03:18;6.70;89.90
59505;DHT22;45321;53.200;5.814;2024-02-28T08:05:47;6.80;89.80
59505;DHT22;45321;53.200;5.814;2024-02-28T08:08:14;6.80;89.80
59505;DHT22;45321;53.200;5.814;2024-02-28T08:10:40;6.80;89.70
59505;DHT22;45321;53.200;5.814;2024-02-28T08:13:06;6.80;89.80
59505;DHT22;45321;53.200;5.814;2024-02-28T08:15:33;6.90;90.00
59505;DHT22;45321;53.200;5.814;2024-02-28T08:17:58;6.90;90.00
59505;DHT22;45321;53.200;5.814;2024-02-28T08:20:24;7.00;90.00
59505;DHT22;45321;53.200;5.814;2024-02-28T08:22:50;7.00;89.90
59505;DHT22;45321;53.200;5.814;2024-02-28T08:25:18;7.10;89.80
59505;DHT22;45321;53.200;5.814;2024-02-28T08:27:44;7.10;89.70
59505;DHT22;45321;53.200;5.814;2024-02-28T08:30:10;7.10;89.80
59505;DHT22;45321;53.200;5.814;2024-02-28T08:32:36;7.20;89.90
59505;DHT22;45321;53.200;5.814;2024-02-28T08:35:08;7.20;90.00
59505;DHT22;45321;53.200;5.814;2024-02-28T08:37:33;7.30;90.00
59505;DHT22;45321;53.200;5.814;2024-02-28T08:39:59;7.20;90.00
59505;DHT22;45321;53.200;5.814;2024-02-28T08:42:25;7.30;90.00
59505;DHT22;45321;53.200;5.814;2024-02-28T08:44:52;7.30;90.10
59505;DHT22;45321;53.200;5.814;2024-02-28T08:47:26;7.30;90.00
59505;DHT22;45321;53.200;5.814;2024-02-28T08:49:55;7.30;90.00
59505;DHT22;45321;53.200;5.814;2024-02-28T08:52:21;7.30;89.80
59505;DHT22;45321;53.200;5.814;2024-02-28T08:54:47;7.30;89.90
59505;DHT22;45321;53.200;5.814;2024-02-28T08:57:14;7.30;90.00
59505;DHT22;45321;53.200;5.814;2024-02-28T08:59:40;7.30;89.90
59505;DHT22;45321;53.200;5.814;2024-02-28T09:02:06;7.30;90.00
59505;DHT22;45321;53.200;5.814;2024-02-28T09:04:33;7.30;90.00
59505;DHT22;45321;53.200;5.814;2024-02-28T09:06:59;7.30;89.70
59505;DHT22;45321;53.200;5.814;2024-02-28T09:09:24;7.30;90.00
59505;DHT22;45321;53.200;5.814;2024-02-28T09:11:50;7.30;90.00
59505;DHT22;45321;53.200;5.814;2024-02-28T09:14:16;7.30;90.10
59505;DHT22;45321;53.200;5.814;2024-02-28T09:16:42;7.30;90.20
59505;DHT22;45321;53.200;5.814;2024-02-28T09:19:07;7.30;90.20
59505;DHT22;45321;53.200;5.814;2024-02-28T09:21:34;7.30;90.30
59505;DHT22;45321;53.200;5.814;2024-02-28T09:24:00;7.30;90.20
59505;DHT22;45321;53.200;5.814;2024-02-28T09:26:28;7.40;90.10
59505;DHT22;45321;53.200;5.814;2024-02-28T09:28:53;7.30;90.20
59505;DHT22;45321;53.200;5.814;2024-02-28T09:31:22;7.40;90.20
59505;DHT22;45321;53.200;5.814;2024-02-28T09:33:48;7.40;90.20
59505;DHT22;45321;53.200;5.814;2024-02-28T09:36:14;7.50;90.20
59505;DHT22;45321;53.200;5.814;2024-02-28T09:38:41;7.50;90.20
59505;DHT22;45321;53.200;5.814;2024-02-28T09:41:07;7.60;90.20
59505;DHT22;45321;53.200;5.814;2024-02-28T09:43:40;7.60;90.10
59505;DHT22;45321;53.200;5.814;2024-02-28T09:46:08;7.60;90.10
59505;DHT22;45321;53.200;5.814;2024-02-28T09:48:38;7.60;90.20
59505;DHT22;45321;53.200;5.814;2024-02-28T09:51:05;7.70;90.20
59505;DHT22;45321;53.200;5.814;2024-02-28T09:53:31;7.80;90.10
59505;DHT22;45321;53.200;5.814;2024-02-28T09:55:57;7.80;90.20
59505;DHT22;45321;53.200;5.814;2024-02-28T09:58:25;7.80;90.00
59505;DHT22;45321;53.200;5.814;2024-02-28T10:00:52;7.90;90.10
59505;DHT22;45321;53.200;5.814;2024-02-28T10:03:22;7.90;90.00
59505;DHT22;45321;53.200;5.814;2024-02-28T10:05:48;7.90;89.90
59505;DHT22;45321;53.200;5.814;2024-02-28T10:08:15;8.00;90.00
59505;DHT22;45321;53.200;5.814;2024-02-28T10:10:50;8.10;90.00
59505;DHT22;45321;53.200;5.814;2024-02-28T10:13:20;8.30;89.90
59505;DHT22;45321;53.200;5.814;2024-02-28T10:15:45;8.30;89.80
59505;DHT22;45321;53.200;5.814;2024-02-28T10:18:13;8.40;89.60
59505;DHT22;45321;53.200;5.814;2024-02-28T10:20:38;8.40;89.30
59505;DHT22;45321;53.200;5.814;2024-02-28T10:23:07;8.40;89.20
59505;DHT22;45321;53.200;5.814;2024-02-28T10:25:47;8.50;89.10
59505;DHT22;45321;53.200;5.814;2024-02-28T10:28:14;8.60;88.90
59505;DHT22;45321;53.200;5.814;2024-02-28T10:30:43;8.70;88.90
59505;DHT22;45321;53.200;5.814;2024-02-28T10:33:11;8.80;88.60
59505;DHT22;45321;53.200;5.814;2024-02-28T10:35:37;8.90;88.40
59505;DHT22;45321;53.200;5.814;2024-02-28T10:38:06;8.80;88.10
59505;DHT22;45321;53.200;5.814;2024-02-28T10:40:32;8.90;87.80
59505;DHT22;45321;53.200;5.814;2024-02-28T10:42:58;8.80;87.50
59505;DHT22;45321;53.200;5.814;2024-02-28T10:45:27;8.80;87.50
59505;DHT22;45321;53.200;5.814;2024-02-28T10:47:54;8.80;87.50
59505;DHT22;45321;53.200;5.814;2024-02-28T10:50:21;8.80;87.20
59505;DHT22;45321;53.200;5.814;2024-02-28T10:52:48;8.70;87.30
59505;DHT22;45321;53.200;5.814;2024-02-28T10:55:21;8.80;87.40
59505;DHT22;45321;53.200;5.814;2024-02-28T10:58:15;8.80;87.30
59505;DHT22;45321;53.200;5.814;2024-02-28T11:00:43;8.70;87.20
59505;DHT22;45321;53.200;5.814;2024-02-28T11:03:15;8.70;87.10
59505;DHT22;45321;53.200;5.814;2024-02-28T11:05:42;8.70;87.10
59505;DHT22;45321;53.200;5.814;2024-02-28T11:08:24;8.70;87.20
59505;DHT22;45321;53.200;5.814;2024-02-28T11:11:03;8.70;87.50
59505;DHT22;45321;53.200;5.814;2024-02-28T11:13:32;8.70;87.50
59505;DHT22;45321;53.200;5.814;2024-02-28T11:16:08;8.70;87.70
59505;DHT22;45321;53.200;5.814;2024-02-28T11:18:33;8.70;87.60
59505;DHT22;45321;53.200;5.814;2024-02-28T11:21:02;8.70;87.50
59505;DHT22;45321;53.200;5.814;2024-02-28T11:23:36;8.70;87.40
59505;DHT22;45321;53.200;5.814;2024-02-28T11:26:03;8.80;87.30
59505;DHT22;45321;53.200;5.814;2024-02-28T11:28:29;8.70;87.50
59505;DHT22;45321;53.200;5.814;2024-02-28T11:30:54;8.80;87.70
59505;DHT22;45321;53.200;5.814;2024-02-28T11:33:20;8.80;87.60
59505;DHT22;45321;53.200;5.814;2024-02-28T11:35:57;8.80;87.40
59505;DHT22;45321;53.200;5.814;2024-02-28T11:38:26;8.90;87.30
59505;DHT22;45321;53.200;5.814;2024-02-28T11:40:52;8.90;87.30
59505;DHT22;45321;53.200;5.814;2024-02-28T11:43:18;9.00;87.20
59505;DHT22;45321;53.200;5.814;2024-02-28T11:45:44;9.00;87.00
59505;DHT22;45321;53.200;5.814;2024-02-28T11:48:14;9.00;87.00
59505;DHT22;45321;53.200;5.814;2024-02-28T11:50:40;8.90;86.90
59505;DHT22;45321;53.200;5.814;2024-02-28T11:53:09;8.90;86.90
59505;DHT22;45321;53.200;5.814;2024-02-28T11:55:35;8.90;87.00
59505;DHT22;45321;53.200;5.814;2024-02-28T11:58:01;8.80;87.10
59505;DHT22;45321;53.200;5.814;2024-02-28T12:00:27;8.80;87.10
59505;DHT22;45321;53.200;5.814;2024-02-28T12:03:04;8.80;87.20
59505;DHT22;45321;53.200;5.814;2024-02-28T12:05:30;8.80;87.30
59505;DHT22;45321;53.200;5.814;2024-02-28T12:07:56;8.80;87.50
59505;DHT22;45321;53.200;5.814;2024-02-28T12:10:24;8.80;87.60
59505;DHT22;45321;53.200;5.814;2024-02-28T12:12:50;8.80;87.50
59505;DHT22;45321;53.200;5.814;2024-02-28T12:15:16;8.80;87.50
59505;DHT22;45321;53.200;5.814;2024-02-28T12:17:42;8.90;87.60
59505;DHT22;45321;53.200;5.814;2024-02-28T12:20:08;8.90;87.40
59505;DHT22;45321;53.200;5.814;2024-02-28T12:22:34;9.00;87.30
59505;DHT22;45321;53.200;5.814;2024-02-28T12:25:00;9.00;87.20
59505;DHT22;45321;53.200;5.814;2024-02-28T12:27:30;9.20;87.10
59505;DHT22;45321;53.200;5.814;2024-02-28T12:29:56;9.30;86.90
59505;DHT22;45321;53.200;5.814;2024-02-28T12:32:22;9.30;86.70
59505;DHT22;45321;53.200;5.814;2024-02-28T12:34:48;9.30;86.50
59505;DHT22;45321;53.200;5.814;2024-02-28T12:37:14;9.40;86.10
59505;DHT22;45321;53.200;5.814;2024-02-28T12:39:39;9.40;85.90
59505;DHT22;45321;53.200;5.814;2024-02-28T12:42:07;9.40;85.70
59505;DHT22;45321;53.200;5.814;2024-02-28T12:44:33;9.40;85.60
59505;DHT22;45321;53.200;5.814;2024-02-28T12:46:59;9.40;85.50
59505;DHT22;45321;53.200;5.814;2024-02-28T12:49:24;9.40;85.50
59505;DHT22;45321;53.200;5.814;2024-02-28T12:51:50;9.40;85.60
59505;DHT22;45321;53.200;5.814;2024-02-28T12:54:17;9.40;85.60
59505;DHT22;45321;53.200;5.814;2024-02-28T12:56:45;9.40;85.60
59505;DHT22;45321;53.200;5.814;2024-02-28T12:59:11;9.40;85.70
59505;DHT22;45321;53.200;5.814;2024-02-28T13:01:38;9.40;85.80
59505;DHT22;45321;53.200;5.814;2024-02-28T13:04:03;9.40;85.80
59505;DHT22;45321;53.200;5.814;2024-02-28T13:06:29;9.30;85.80
59505;DHT22;45321;53.200;5.814;2024-02-28T13:08:55;9.30;86.00
59505;DHT22;45321;53.200;5.814;2024-02-28T13:11:22;9.40;86.00
59505;DHT22;45321;53.200;5.814;2024-02-28T13:13:49;9.50;86.00
59505;DHT22;45321;53.200;5.814;2024-02-28T13:16:16;9.50;86.00
59505;DHT22;45321;53.200;5.814;2024-02-28T13:18:42;9.60;86.00
59505;DHT22;45321;53.200;5.814;2024-02-28T13:21:09;9.60;85.90
59505;DHT22;45321;53.200;5.814;2024-02-28T13:23:35;9.70;85.90
59505;DHT22;45321;53.200;5.814;2024-02-28T13:26:01;9.80;85.80
59505;DHT22;45321;53.200;5.814;2024-02-28T13:28:27;9.90;85.40
59505;DHT22;45321;53.200;5.814;2024-02-28T13:31:00;9.90;85.10
59505;DHT22;45321;53.200;5.814;2024-02-28T13:33:26;9.90;84.80
59505;DHT22;45321;53.200;5.814;2024-02-28T13:35:53;10.00;85.00
59505;DHT22;45321;53.200;5.814;2024-02-28T13:38:20;10.20;84.80
59505;DHT22;45321;53.200;5.814;2024-02-28T13:40:49;10.20;84.60
59505;DHT22;45321;53.200;5.814;2024-02-28T13:43:18;10.20;84.60
59505;DHT22;45321;53.200;5.814;2024-02-28T13:45:47;10.10;84.40
59505;DHT22;45321;53.200;5.814;2024-02-28T13:48:23;10.20;84.50
59505;DHT22;45321;53.200;5.814;2024-02-28T13:50:56;10.30;84.40
59505;DHT22;45321;53.200;5.814;2024-02-28T13:53:22;10.30;84.20
59505;DHT22;45321;53.200;5.814;2024-02-28T13:55:50;10.30;84.00
59505;DHT22;45321;53.200;5.814;2024-02-28T13:58:16;10.30;83.90
59505;DHT22;45321;53.200;5.814;2024-02-28T14:00:46;10.20;84.00
59505;DHT22;45321;53.200;5.814;2024-02-28T14:03:13;10.10;84.10
59505;DHT22;45321;53.200;5.814;2024-02-28T14:05:39;10.10;84.10
59505;DHT22;45321;53.200;5.814;2024-02-28T14:08:05;10.00;84.20
59505;DHT22;45321;53.200;5.814;2024-02-28T14:10:34;9.90;84.20
59505;DHT22;45321;53.200;5.814;2024-02-28T14:13:00;9.90;84.40
59505;DHT22;45321;53.200;5.814;2024-02-28T14:15:27;9.90;84.50
59505;DHT22;45321;53.200;5.814;2024-02-28T14:17:52;9.80;84.50
59505;DHT22;45321;53.200;5.814;2024-02-28T14:20:21;9.80;84.60
59505;DHT22;45321;53.200;5.814;2024-02-28T14:22:49;9.80;84.70
59505;DHT22;45321;53.200;5.814;2024-02-28T14:25:17;9.80;84.70
59505;DHT22;45321;53.200;5.814;2024-02-28T14:27:46;9.80;84.70
59505;DHT22;45321;53.200;5.814;2024-02-28T14:30:13;9.80;84.70
59505;DHT22;45321;53.200;5.814;2024-02-28T14:32:40;9.70;84.80
59505;DHT22;45321;53.200;5.814;2024-02-28T14:35:07;9.70;84.90
59505;DHT22;45321;53.200;5.814;2024-02-28T14:37:37;9.70;84.70
59505;DHT22;45321;53.200;5.814;2024-02-28T14:40:05;9.60;84.70
59505;DHT22;45321;53.200;5.814;2024-02-28T14:42:44;9.60;84.80
59505;DHT22;45321;53.200;5.814;2024-02-28T14:45:14;9.60;84.90
59505;DHT22;45321;53.200;5.814;2024-02-28T14:47:43;9.50;85.00
59505;DHT22;45321;53.200;5.814;2024-02-28T14:50:10;9.50;85.10
59505;DHT22;45321;53.200;5.814;2024-02-28T14:52:42;9.50;85.10
59505;DHT22;45321;53.200;5.814;2024-02-28T14:55:08;9.50;85.20
59505;DHT22;45321;53.200;5.814;2024-02-28T14:57:38;9.40;85.30
59505;DHT22;45321;53.200;5.814;2024-02-28T15:00:04;9.40;85.30
59505;DHT22;45321;53.200;5.814;2024-02-28T15:02:34;9.40;85.30
59505;DHT22;45321;53.200;5.814;2024-02-28T15:05:00;9.30;85.40
59505;DHT22;45321;53.200;5.814;2024-02-28T15:07:30;9.40;85.50
59505;DHT22;45321;53.200;5.814;2024-02-28T15:09:56;9.40;85.50
59505;DHT22;45321;53.200;5.814;2024-02-28T15:12:26;9.40;85.50
59505;DHT22;45321;53.200;5.814;2024-02-28T15:14:52;9.50;85.50
59505;DHT22;45321;53.200;5.814;2024-02-28T15:17:20;9.50;85.40
59505;DHT22;45321;53.200;5.814;2024-02-28T15:19:45;9.50;85.40
59505;DHT22;45321;53.200;5.814;2024-02-28T15:22:11;9.50;85.30
59505;DHT22;45321;53.200;5.814;2024-02-28T15:24:37;9.50;85.20
59505;DHT22;45321;53.200;5.814;2024-02-28T15:27:05;9.50;85.10
59505;DHT22;45321;53.200;5.814;2024-02-28T15:29:31;9.50;84.90
59505;DHT22;45321;53.200;5.814;2024-02-28T15:31:57;9.50;84.80
59505;DHT22;45321;53.200;5.814;2024-02-28T15:34:23;9.50;84.70
59505;DHT22;45321;53.200;5.814;2024-02-28T15:36:49;9.50;84.80
59505;DHT22;45321;53.200;5.814;2024-02-28T15:39:15;9.50;84.80
59505;DHT22;45321;53.200;5.814;2024-02-28T15:41:41;9.60;84.90